CNH3 weather

CLOSED Durham (Mulock) Airport
Durham, Ontario, Canada

Public forecast

Using degrees Celsius for public forecast. Weather courtesy of forecast.io.

Closest aviation weather report (METAR) to Durham (Mulock) Airport

Closest report is Wiarton Airport, 32.1 nm (59.5 km) NNW. Retrieved 2020/01/26 07:35 UTC (8 minutes ago):

CYVV 260735Z 23011G16KT 2SM -RA BR OVC004 01/01 A2966 RMK FG2SF6 SLP053

Closest aviation forecast (TAF) to Durham (Mulock) Airport

Forecast is more than 6 hours old.

Closest forecast is Wiarton Airport, 32.1 nm (59.5 km) NNW. Retrieved 2020/01/25 20:00 UTC (12 hours ago):

TAF CYVV 251938Z 2520/2524 15005KT 6SM -RA BR SCT004 OVC020 TEMPO 2520/2524 2SM -DZ BR OVC004 RMK NXT FCST WILL BE ISSUED AT 261145Z